sensor_id;sensor_type;location;lat;lon;timestamp;P1;durP1;ratioP1;P2;durP2;ratioP2
16922;SDS011;8578;50.938;13.556;2023-04-23T00:01:41;4.50;;;2.47;;
16922;SDS011;8578;50.938;13.556;2023-04-23T00:04:08;5.60;;;2.40;;
16922;SDS011;8578;50.938;13.556;2023-04-23T00:06:41;4.97;;;2.40;;
16922;SDS011;8578;50.938;13.556;2023-04-23T00:09:09;3.90;;;2.50;;
16922;SDS011;8578;50.938;13.556;2023-04-23T00:11:40;4.30;;;2.37;;
16922;SDS011;8578;50.938;13.556;2023-04-23T00:14:08;7.27;;;2.70;;
16922;SDS011;8578;50.938;13.556;2023-04-23T00:16:35;3.57;;;2.30;;
16922;SDS011;8578;50.938;13.556;2023-04-23T00:19:04;4.47;;;2.40;;
16922;SDS011;8578;50.938;13.556;2023-04-23T00:21:31;6.57;;;2.33;;
16922;SDS011;8578;50.938;13.556;2023-04-23T00:24:00;6.47;;;2.50;;
16922;SDS011;8578;50.938;13.556;2023-04-23T00:26:28;4.80;;;2.33;;
16922;SDS011;8578;50.938;13.556;2023-04-23T00:28:55;6.60;;;2.60;;
16922;SDS011;8578;50.938;13.556;2023-04-23T00:31:23;6.43;;;2.70;;
16922;SDS011;8578;50.938;13.556;2023-04-23T00:33:52;7.57;;;2.40;;
16922;SDS011;8578;50.938;13.556;2023-04-23T00:36:21;6.60;;;2.80;;
16922;SDS011;8578;50.938;13.556;2023-04-23T00:38:49;5.77;;;2.60;;
16922;SDS011;8578;50.938;13.556;2023-04-23T00:41:17;5.67;;;2.20;;
16922;SDS011;8578;50.938;13.556;2023-04-23T00:43:45;4.97;;;2.47;;
16922;SDS011;8578;50.938;13.556;2023-04-23T00:46:14;3.07;;;2.37;;
16922;SDS011;8578;50.938;13.556;2023-04-23T00:48:43;4.97;;;2.57;;
16922;SDS011;8578;50.938;13.556;2023-04-23T00:51:11;5.13;;;2.60;;
16922;SDS011;8578;50.938;13.556;2023-04-23T00:53:39;6.70;;;3.20;;
16922;SDS011;8578;50.938;13.556;2023-04-23T00:56:06;5.07;;;2.77;;
16922;SDS011;8578;50.938;13.556;2023-04-23T00:58:36;5.57;;;2.63;;
16922;SDS011;8578;50.938;13.556;2023-04-23T01:01:03;4.23;;;2.57;;
16922;SDS011;8578;50.938;13.556;2023-04-23T01:03:32;4.10;;;2.57;;
16922;SDS011;8578;50.938;13.556;2023-04-23T01:06:01;8.33;;;2.73;;
16922;SDS011;8578;50.938;13.556;2023-04-23T01:08:29;3.70;;;2.47;;
16922;SDS011;8578;50.938;13.556;2023-04-23T01:10:57;6.30;;;2.60;;
16922;SDS011;8578;50.938;13.556;2023-04-23T01:13:26;3.47;;;2.73;;
16922;SDS011;8578;50.938;13.556;2023-04-23T01:15:56;6.30;;;2.60;;
16922;SDS011;8578;50.938;13.556;2023-04-23T01:18:24;4.20;;;2.63;;
16922;SDS011;8578;50.938;13.556;2023-04-23T01:20:52;4.37;;;2.53;;
16922;SDS011;8578;50.938;13.556;2023-04-23T01:23:21;4.20;;;2.60;;
16922;SDS011;8578;50.938;13.556;2023-04-23T01:25:49;5.43;;;2.43;;
16922;SDS011;8578;50.938;13.556;2023-04-23T01:28:16;6.10;;;2.60;;
16922;SDS011;8578;50.938;13.556;2023-04-23T01:30:43;3.73;;;2.63;;
16922;SDS011;8578;50.938;13.556;2023-04-23T01:33:12;6.30;;;2.77;;
16922;SDS011;8578;50.938;13.556;2023-04-23T01:35:40;4.77;;;2.60;;
16922;SDS011;8578;50.938;13.556;2023-04-23T01:38:07;7.23;;;2.80;;
16922;SDS011;8578;50.938;13.556;2023-04-23T01:40:37;4.27;;;2.67;;
16922;SDS011;8578;50.938;13.556;2023-04-23T01:43:05;5.27;;;2.67;;
16922;SDS011;8578;50.938;13.556;2023-04-23T01:45:33;2.87;;;2.20;;
16922;SDS011;8578;50.938;13.556;2023-04-23T01:48:01;9.57;;;3.17;;
16922;SDS011;8578;50.938;13.556;2023-04-23T01:50:29;3.47;;;2.60;;
16922;SDS011;8578;50.938;13.556;2023-04-23T01:52:56;4.37;;;2.73;;
16922;SDS011;8578;50.938;13.556;2023-04-23T01:55:24;5.50;;;2.87;;
16922;SDS011;8578;50.938;13.556;2023-04-23T01:57:53;7.43;;;2.53;;
16922;SDS011;8578;50.938;13.556;2023-04-23T02:00:21;10.93;;;2.87;;
16922;SDS011;8578;50.938;13.556;2023-04-23T02:02:49;4.97;;;2.50;;
16922;SDS011;8578;50.938;13.556;2023-04-23T02:05:18;5.67;;;2.80;;
16922;SDS011;8578;50.938;13.556;2023-04-23T02:07:46;4.33;;;2.90;;
16922;SDS011;8578;50.938;13.556;2023-04-23T02:10:14;4.13;;;2.50;;
16922;SDS011;8578;50.938;13.556;2023-04-23T02:12:42;2.97;;;2.50;;
16922;SDS011;8578;50.938;13.556;2023-04-23T02:15:12;6.57;;;2.80;;
16922;SDS011;8578;50.938;13.556;2023-04-23T02:17:41;6.53;;;2.80;;
16922;SDS011;8578;50.938;13.556;2023-04-23T02:20:09;6.30;;;3.00;;
16922;SDS011;8578;50.938;13.556;2023-04-23T02:22:36;5.93;;;2.47;;
16922;SDS011;8578;50.938;13.556;2023-04-23T02:25:04;7.00;;;2.80;;
16922;SDS011;8578;50.938;13.556;2023-04-23T02:27:32;5.33;;;2.30;;
16922;SDS011;8578;50.938;13.556;2023-04-23T02:29:59;4.53;;;2.57;;
16922;SDS011;8578;50.938;13.556;2023-04-23T02:32:29;6.87;;;2.63;;
16922;SDS011;8578;50.938;13.556;2023-04-23T02:34:57;5.47;;;3.00;;
16922;SDS011;8578;50.938;13.556;2023-04-23T02:37:27;4.87;;;2.90;;
16922;SDS011;8578;50.938;13.556;2023-04-23T02:39:54;4.10;;;2.40;;
16922;SDS011;8578;50.938;13.556;2023-04-23T02:42:21;6.40;;;2.83;;
16922;SDS011;8578;50.938;13.556;2023-04-23T02:44:49;5.23;;;2.70;;
16922;SDS011;8578;50.938;13.556;2023-04-23T02:47:18;8.90;;;2.73;;
16922;SDS011;8578;50.938;13.556;2023-04-23T02:49:47;3.73;;;2.43;;
16922;SDS011;8578;50.938;13.556;2023-04-23T02:52:14;4.63;;;2.30;;
16922;SDS011;8578;50.938;13.556;2023-04-23T02:54:41;3.00;;;2.40;;
16922;SDS011;8578;50.938;13.556;2023-04-23T02:57:09;4.70;;;2.23;;
16922;SDS011;8578;50.938;13.556;2023-04-23T02:59:39;5.00;;;2.53;;
16922;SDS011;8578;50.938;13.556;2023-04-23T03:02:08;6.97;;;2.40;;
16922;SDS011;8578;50.938;13.556;2023-04-23T03:04:36;3.77;;;2.47;;
16922;SDS011;8578;50.938;13.556;2023-04-23T03:07:06;6.20;;;2.53;;
16922;SDS011;8578;50.938;13.556;2023-04-23T03:09:34;3.40;;;2.50;;
16922;SDS011;8578;50.938;13.556;2023-04-23T03:12:01;7.87;;;2.47;;
16922;SDS011;8578;50.938;13.556;2023-04-23T03:14:29;4.63;;;2.60;;
16922;SDS011;8578;50.938;13.556;2023-04-23T03:16:56;5.33;;;2.80;;
16922;SDS011;8578;50.938;13.556;2023-04-23T03:19:25;5.07;;;2.40;;
16922;SDS011;8578;50.938;13.556;2023-04-23T03:21:55;3.77;;;2.03;;
16922;SDS011;8578;50.938;13.556;2023-04-23T03:24:25;5.97;;;2.43;;
16922;SDS011;8578;50.938;13.556;2023-04-23T03:26:57;3.17;;;2.00;;
16922;SDS011;8578;50.938;13.556;2023-04-23T03:29:25;4.23;;;2.23;;
16922;SDS011;8578;50.938;13.556;2023-04-23T03:31:53;5.50;;;1.97;;
16922;SDS011;8578;50.938;13.556;2023-04-23T03:34:23;3.00;;;2.37;;
16922;SDS011;8578;50.938;13.556;2023-04-23T03:36:50;2.10;;;1.90;;
16922;SDS011;8578;50.938;13.556;2023-04-23T03:39:18;5.17;;;2.17;;
16922;SDS011;8578;50.938;13.556;2023-04-23T03:41:50;2.83;;;2.20;;
16922;SDS011;8578;50.938;13.556;2023-04-23T03:44:22;2.80;;;2.07;;
16922;SDS011;8578;50.938;13.556;2023-04-23T03:46:49;5.43;;;2.23;;
16922;SDS011;8578;50.938;13.556;2023-04-23T03:49:18;3.00;;;2.10;;
16922;SDS011;8578;50.938;13.556;2023-04-23T03:51:46;4.13;;;1.93;;
16922;SDS011;8578;50.938;13.556;2023-04-23T03:54:14;3.20;;;1.70;;
16922;SDS011;8578;50.938;13.556;2023-04-23T03:57:04;2.50;;;1.77;;
16922;SDS011;8578;50.938;13.556;2023-04-23T03:59:37;2.70;;;1.93;;
16922;SDS011;8578;50.938;13.556;2023-04-23T04:02:04;2.10;;;1.63;;
16922;SDS011;8578;50.938;13.556;2023-04-23T04:04:32;2.83;;;1.97;;
16922;SDS011;8578;50.938;13.556;2023-04-23T04:07:00;3.30;;;2.10;;
16922;SDS011;8578;50.938;13.556;2023-04-23T04:09:27;3.73;;;2.07;;
16922;SDS011;8578;50.938;13.556;2023-04-23T04:11:59;2.30;;;1.50;;
16922;SDS011;8578;50.938;13.556;2023-04-23T04:14:29;2.40;;;1.73;;
16922;SDS011;8578;50.938;13.556;2023-04-23T04:16:57;1.93;;;1.60;;
16922;SDS011;8578;50.938;13.556;2023-04-23T04:19:24;2.20;;;1.90;;
16922;SDS011;8578;50.938;13.556;2023-04-23T04:21:51;2.73;;;1.70;;
16922;SDS011;8578;50.938;13.556;2023-04-23T04:24:19;3.07;;;2.00;;
16922;SDS011;8578;50.938;13.556;2023-04-23T04:26:50;4.57;;;2.20;;
16922;SDS011;8578;50.938;13.556;2023-04-23T04:29:19;3.93;;;1.80;;
16922;SDS011;8578;50.938;13.556;2023-04-23T04:31:50;3.50;;;2.40;;
16922;SDS011;8578;50.938;13.556;2023-04-23T04:34:18;3.37;;;2.27;;
16922;SDS011;8578;50.938;13.556;2023-04-23T04:36:45;7.83;;;2.43;;
16922;SDS011;8578;50.938;13.556;2023-04-23T04:39:13;2.53;;;2.00;;
16922;SDS011;8578;50.938;13.556;2023-04-23T04:41:40;2.83;;;2.00;;
16922;SDS011;8578;50.938;13.556;2023-04-23T04:44:08;2.63;;;2.20;;
16922;SDS011;8578;50.938;13.556;2023-04-23T04:46:36;2.63;;;2.00;;
16922;SDS011;8578;50.938;13.556;2023-04-23T04:49:07;2.67;;;2.03;;
16922;SDS011;8578;50.938;13.556;2023-04-23T04:51:35;3.97;;;2.10;;
16922;SDS011;8578;50.938;13.556;2023-04-23T04:54:02;6.37;;;2.30;;
16922;SDS011;8578;50.938;13.556;2023-04-23T04:56:30;4.20;;;1.77;;
16922;SDS011;8578;50.938;13.556;2023-04-23T04:58:58;2.90;;;1.90;;
16922;SDS011;8578;50.938;13.556;2023-04-23T05:01:25;2.97;;;1.90;;
16922;SDS011;8578;50.938;13.556;2023-04-23T05:03:53;3.83;;;2.20;;
16922;SDS011;8578;50.938;13.556;2023-04-23T05:06:22;3.47;;;2.10;;
16922;SDS011;8578;50.938;13.556;2023-04-23T05:08:50;2.70;;;1.90;;
16922;SDS011;8578;50.938;13.556;2023-04-23T05:11:17;2.40;;;1.77;;
16922;SDS011;8578;50.938;13.556;2023-04-23T05:13:45;2.87;;;2.30;;
16922;SDS011;8578;50.938;13.556;2023-04-23T05:16:12;3.07;;;1.90;;
16922;SDS011;8578;50.938;13.556;2023-04-23T05:18:40;3.80;;;2.20;;
16922;SDS011;8578;50.938;13.556;2023-04-23T05:21:08;3.57;;;2.00;;
16922;SDS011;8578;50.938;13.556;2023-04-23T05:23:37;1.80;;;1.60;;
16922;SDS011;8578;50.938;13.556;2023-04-23T05:26:04;3.27;;;1.90;;
16922;SDS011;8578;50.938;13.556;2023-04-23T05:28:32;3.90;;;1.83;;
16922;SDS011;8578;50.938;13.556;2023-04-23T05:30:59;3.07;;;1.90;;
16922;SDS011;8578;50.938;13.556;2023-04-23T05:33:27;2.23;;;1.80;;
16922;SDS011;8578;50.938;13.556;2023-04-23T05:36:04;3.23;;;2.20;;
16922;SDS011;8578;50.938;13.556;2023-04-23T05:38:33;1.97;;;1.60;;
16922;SDS011;8578;50.938;13.556;2023-04-23T05:41:02;6.77;;;1.90;;
16922;SDS011;8578;50.938;13.556;2023-04-23T05:43:29;3.17;;;1.70;;
16922;SDS011;8578;50.938;13.556;2023-04-23T05:45:57;4.00;;;1.80;;
16922;SDS011;8578;50.938;13.556;2023-04-23T05:48:24;3.27;;;1.70;;
16922;SDS011;8578;50.938;13.556;2023-04-23T05:50:52;3.17;;;1.57;;
16922;SDS011;8578;50.938;13.556;2023-04-23T05:53:20;3.30;;;1.87;;
16922;SDS011;8578;50.938;13.556;2023-04-23T05:55:47;2.40;;;1.67;;
16922;SDS011;8578;50.938;13.556;2023-04-23T05:58:16;3.43;;;1.60;;
16922;SDS011;8578;50.938;13.556;2023-04-23T06:00:44;4.63;;;2.00;;
16922;SDS011;8578;50.938;13.556;2023-04-23T06:03:11;3.07;;;1.80;;
16922;SDS011;8578;50.938;13.556;2023-04-23T06:05:40;4.03;;;2.00;;
16922;SDS011;8578;50.938;13.556;2023-04-23T06:08:08;3.37;;;2.03;;
16922;SDS011;8578;50.938;13.556;2023-04-23T06:10:35;2.67;;;1.87;;
16922;SDS011;8578;50.938;13.556;2023-04-23T06:13:04;3.73;;;1.80;;
16922;SDS011;8578;50.938;13.556;2023-04-23T06:15:33;3.60;;;1.93;;
16922;SDS011;8578;50.938;13.556;2023-04-23T06:18:00;3.97;;;1.90;;
16922;SDS011;8578;50.938;13.556;2023-04-23T06:20:28;3.87;;;2.07;;
16922;SDS011;8578;50.938;13.556;2023-04-23T06:22:56;2.97;;;1.80;;
16922;SDS011;8578;50.938;13.556;2023-04-23T06:25:24;4.10;;;2.37;;
16922;SDS011;8578;50.938;13.556;2023-04-23T06:27:51;4.33;;;1.97;;
16922;SDS011;8578;50.938;13.556;2023-04-23T06:30:23;5.93;;;2.07;;
16922;SDS011;8578;50.938;13.556;2023-04-23T06:32:52;2.77;;;2.20;;
16922;SDS011;8578;50.938;13.556;2023-04-23T06:35:20;3.90;;;2.20;;
16922;SDS011;8578;50.938;13.556;2023-04-23T06:37:47;3.93;;;2.50;;
16922;SDS011;8578;50.938;13.556;2023-04-23T06:40:15;3.80;;;2.17;;
16922;SDS011;8578;50.938;13.556;2023-04-23T06:42:43;3.97;;;2.17;;
16922;SDS011;8578;50.938;13.556;2023-04-23T06:45:16;2.43;;;2.13;;
16922;SDS011;8578;50.938;13.556;2023-04-23T06:47:44;4.73;;;2.43;;
16922;SDS011;8578;50.938;13.556;2023-04-23T06:50:12;4.27;;;2.17;;
16922;SDS011;8578;50.938;13.556;2023-04-23T06:52:40;4.37;;;2.00;;
16922;SDS011;8578;50.938;13.556;2023-04-23T06:55:07;3.90;;;2.50;;
16922;SDS011;8578;50.938;13.556;2023-04-23T06:57:35;2.97;;;2.20;;
16922;SDS011;8578;50.938;13.556;2023-04-23T07:00:02;3.10;;;2.10;;
16922;SDS011;8578;50.938;13.556;2023-04-23T07:02:35;2.07;;;1.87;;
16922;SDS011;8578;50.938;13.556;2023-04-23T07:05:03;3.73;;;2.00;;
16922;SDS011;8578;50.938;13.556;2023-04-23T07:07:32;3.30;;;1.90;;
16922;SDS011;8578;50.938;13.556;2023-04-23T07:10:01;4.27;;;2.30;;
16922;SDS011;8578;50.938;13.556;2023-04-23T07:12:30;2.83;;;1.97;;
16922;SDS011;8578;50.938;13.556;2023-04-23T07:14:57;4.20;;;1.90;;
16922;SDS011;8578;50.938;13.556;2023-04-23T07:17:25;3.87;;;2.00;;
16922;SDS011;8578;50.938;13.556;2023-04-23T07:19:52;3.70;;;2.00;;
16922;SDS011;8578;50.938;13.556;2023-04-23T07:22:20;2.00;;;1.80;;
16922;SDS011;8578;50.938;13.556;2023-04-23T07:24:49;4.63;;;2.10;;
16922;SDS011;8578;50.938;13.556;2023-04-23T07:27:16;3.13;;;1.77;;
16922;SDS011;8578;50.938;13.556;2023-04-23T07:29:44;4.20;;;1.77;;
16922;SDS011;8578;50.938;13.556;2023-04-23T07:32:12;4.60;;;1.90;;
16922;SDS011;8578;50.938;13.556;2023-04-23T07:34:40;3.53;;;1.93;;
16922;SDS011;8578;50.938;13.556;2023-04-23T07:37:09;2.20;;;1.60;;
16922;SDS011;8578;50.938;13.556;2023-04-23T07:39:37;3.97;;;1.93;;
16922;SDS011;8578;50.938;13.556;2023-04-23T07:42:09;3.70;;;1.70;;
16922;SDS011;8578;50.938;13.556;2023-04-23T07:44:36;1.40;;;1.20;;
16922;SDS011;8578;50.938;13.556;2023-04-23T07:47:04;3.17;;;1.60;;
16922;SDS011;8578;50.938;13.556;2023-04-23T07:49:32;3.10;;;1.50;;
16922;SDS011;8578;50.938;13.556;2023-04-23T07:52:00;3.43;;;1.30;;
16922;SDS011;8578;50.938;13.556;2023-04-23T07:54:28;2.10;;;1.27;;
16922;SDS011;8578;50.938;13.556;2023-04-23T07:56:55;2.30;;;1.47;;
16922;SDS011;8578;50.938;13.556;2023-04-23T07:59:24;3.20;;;1.63;;
16922;SDS011;8578;50.938;13.556;2023-04-23T08:01:52;1.60;;;1.33;;
16922;SDS011;8578;50.938;13.556;2023-04-23T08:04:19;1.30;;;1.20;;
16922;SDS011;8578;50.938;13.556;2023-04-23T08:06:47;2.67;;;1.50;;
16922;SDS011;8578;50.938;13.556;2023-04-23T08:09:15;1.67;;;1.03;;
16922;SDS011;8578;50.938;13.556;2023-04-23T08:11:42;2.97;;;1.50;;
16922;SDS011;8578;50.938;13.556;2023-04-23T08:14:10;2.17;;;1.40;;
16922;SDS011;8578;50.938;13.556;2023-04-23T08:16:39;1.20;;;1.10;;
16922;SDS011;8578;50.938;13.556;2023-04-23T08:19:06;1.67;;;1.27;;
16922;SDS011;8578;50.938;13.556;2023-04-23T08:21:34;6.70;;;1.47;;
16922;SDS011;8578;50.938;13.556;2023-04-23T08:24:02;3.10;;;1.00;;
16922;SDS011;8578;50.938;13.556;2023-04-23T08:26:30;2.90;;;1.10;;
16922;SDS011;8578;50.938;13.556;2023-04-23T08:28:57;1.07;;;0.80;;
16922;SDS011;8578;50.938;13.556;2023-04-23T08:31:26;1.70;;;1.07;;
16922;SDS011;8578;50.938;13.556;2023-04-23T08:33:55;0.90;;;0.90;;
16922;SDS011;8578;50.938;13.556;2023-04-23T08:36:23;1.53;;;1.00;;
16922;SDS011;8578;50.938;13.556;2023-04-23T08:38:50;1.37;;;0.80;;
16922;SDS011;8578;50.938;13.556;2023-04-23T08:41:18;3.27;;;0.80;;
16922;SDS011;8578;50.938;13.556;2023-04-23T08:43:49;0.70;;;0.67;;
16922;SDS011;8578;50.938;13.556;2023-04-23T08:46:18;1.33;;;0.63;;
16922;SDS011;8578;50.938;13.556;2023-04-23T08:48:45;0.70;;;0.63;;
16922;SDS011;8578;50.938;13.556;2023-04-23T08:51:16;2.30;;;0.67;;
16922;SDS011;8578;50.938;13.556;2023-04-23T08:53:44;1.20;;;0.70;;
16922;SDS011;8578;50.938;13.556;2023-04-23T08:56:17;1.10;;;0.60;;
16922;SDS011;8578;50.938;13.556;2023-04-23T08:58:46;2.10;;;0.70;;
16922;SDS011;8578;50.938;13.556;2023-04-23T09:01:13;0.73;;;0.60;;
16922;SDS011;8578;50.938;13.556;2023-04-23T09:03:41;2.93;;;0.60;;
16922;SDS011;8578;50.938;13.556;2023-04-23T09:06:08;1.67;;;0.80;;
16922;SDS011;8578;50.938;13.556;2023-04-23T09:08:38;2.50;;;0.67;;
16922;SDS011;8578;50.938;13.556;2023-04-23T09:11:05;1.00;;;0.70;;
16922;SDS011;8578;50.938;13.556;2023-04-23T09:13:33;1.00;;;0.60;;
16922;SDS011;8578;50.938;13.556;2023-04-23T09:16:02;1.97;;;1.03;;
16922;SDS011;8578;50.938;13.556;2023-04-23T09:18:31;0.50;;;0.50;;
16922;SDS011;8578;50.938;13.556;2023-04-23T09:20:59;0.97;;;0.77;;
16922;SDS011;8578;50.938;13.556;2023-04-23T09:23:29;0.83;;;0.70;;
16922;SDS011;8578;50.938;13.556;2023-04-23T09:25:58;1.50;;;0.83;;
16922;SDS011;8578;50.938;13.556;2023-04-23T09:28:32;0.60;;;0.60;;
16922;SDS011;8578;50.938;13.556;2023-04-23T09:31:00;0.73;;;0.70;;
16922;SDS011;8578;50.938;13.556;2023-04-23T09:33:27;0.40;;;0.40;;
16922;SDS011;8578;50.938;13.556;2023-04-23T09:35:56;0.40;;;0.40;;
16922;SDS011;8578;50.938;13.556;2023-04-23T09:38:23;0.60;;;0.50;;
16922;SDS011;8578;50.938;13.556;2023-04-23T09:40:51;0.93;;;0.50;;
16922;SDS011;8578;50.938;13.556;2023-04-23T09:43:20;1.43;;;0.60;;
16922;SDS011;8578;50.938;13.556;2023-04-23T09:45:47;0.97;;;0.50;;
16922;SDS011;8578;50.938;13.556;2023-04-23T09:48:15;1.27;;;0.60;;
16922;SDS011;8578;50.938;13.556;2023-04-23T09:50:42;1.07;;;0.70;;
16922;SDS011;8578;50.938;13.556;2023-04-23T09:53:10;0.90;;;0.60;;
16922;SDS011;8578;50.938;13.556;2023-04-23T09:55:40;0.50;;;0.40;;
16922;SDS011;8578;50.938;13.556;2023-04-23T09:58:10;0.93;;;0.50;;
16922;SDS011;8578;50.938;13.556;2023-04-23T10:00:40;0.50;;;0.40;;
16922;SDS011;8578;50.938;13.556;2023-04-23T10:03:08;0.53;;;0.40;;
16922;SDS011;8578;50.938;13.556;2023-04-23T10:05:38;0.87;;;0.60;;
16922;SDS011;8578;50.938;13.556;2023-04-23T10:08:26;0.50;;;0.40;;
16922;SDS011;8578;50.938;13.556;2023-04-23T10:10:54;0.63;;;0.40;;
16922;SDS011;8578;50.938;13.556;2023-04-23T10:13:42;0.50;;;0.50;;
16922;SDS011;8578;50.938;13.556;2023-04-23T10:16:10;2.03;;;0.60;;
16922;SDS011;8578;50.938;13.556;2023-04-23T10:18:49;0.40;;;0.40;;
16922;SDS011;8578;50.938;13.556;2023-04-23T10:21:17;0.50;;;0.50;;
16922;SDS011;8578;50.938;13.556;2023-04-23T10:23:46;1.17;;;0.50;;
16922;SDS011;8578;50.938;13.556;2023-04-23T10:26:14;0.50;;;0.50;;
16922;SDS011;8578;50.938;13.556;2023-04-23T10:28:43;0.63;;;0.53;;
16922;SDS011;8578;50.938;13.556;2023-04-23T10:31:14;0.70;;;0.50;;
16922;SDS011;8578;50.938;13.556;2023-04-23T10:33:42;0.73;;;0.73;;
16922;SDS011;8578;50.938;13.556;2023-04-23T10:36:24;1.40;;;0.67;;
16922;SDS011;8578;50.938;13.556;2023-04-23T10:38:52;0.90;;;0.60;;
16922;SDS011;8578;50.938;13.556;2023-04-23T10:41:24;2.20;;;0.80;;
16922;SDS011;8578;50.938;13.556;2023-04-23T10:43:55;0.70;;;0.57;;
16922;SDS011;8578;50.938;13.556;2023-04-23T10:46:28;0.63;;;0.50;;
16922;SDS011;8578;50.938;13.556;2023-04-23T10:49:09;0.70;;;0.60;;
16922;SDS011;8578;50.938;13.556;2023-04-23T10:51:39;1.30;;;0.60;;
16922;SDS011;8578;50.938;13.556;2023-04-23T10:54:12;0.40;;;0.40;;
16922;SDS011;8578;50.938;13.556;2023-04-23T10:56:41;0.50;;;0.40;;
16922;SDS011;8578;50.938;13.556;2023-04-23T10:59:16;0.70;;;0.40;;
16922;SDS011;8578;50.938;13.556;2023-04-23T11:01:46;0.47;;;0.40;;
16922;SDS011;8578;50.938;13.556;2023-04-23T11:04:21;0.40;;;0.40;;
16922;SDS011;8578;50.938;13.556;2023-04-23T11:06:50;0.60;;;0.60;;
16922;SDS011;8578;50.938;13.556;2023-04-23T11:09:27;1.13;;;0.70;;
16922;SDS011;8578;50.938;13.556;2023-04-23T11:11:54;1.77;;;0.50;;
16922;SDS011;8578;50.938;13.556;2023-04-23T11:14:31;1.20;;;0.70;;
16922;SDS011;8578;50.938;13.556;2023-04-23T11:17:00;1.30;;;0.70;;
16922;SDS011;8578;50.938;13.556;2023-04-23T11:19:28;1.27;;;0.70;;
16922;SDS011;8578;50.938;13.556;2023-04-23T11:21:57;1.20;;;0.50;;
16922;SDS011;8578;50.938;13.556;2023-04-23T11:24:28;1.27;;;0.80;;
16922;SDS011;8578;50.938;13.556;2023-04-23T11:26:56;1.77;;;0.77;;
16922;SDS011;8578;50.938;13.556;2023-04-23T11:29:24;1.00;;;0.80;;
16922;SDS011;8578;50.938;13.556;2023-04-23T11:31:52;0.63;;;0.60;;
16922;SDS011;8578;50.938;13.556;2023-04-23T11:34:30;1.00;;;0.90;;
16922;SDS011;8578;50.938;13.556;2023-04-23T11:36:58;0.87;;;0.60;;
16922;SDS011;8578;50.938;13.556;2023-04-23T11:39:26;0.70;;;0.70;;
16922;SDS011;8578;50.938;13.556;2023-04-23T11:41:53;0.80;;;0.80;;
16922;SDS011;8578;50.938;13.556;2023-04-23T11:44:22;0.70;;;0.70;;
16922;SDS011;8578;50.938;13.556;2023-04-23T11:46:49;1.37;;;0.70;;
16922;SDS011;8578;50.938;13.556;2023-04-23T11:49:17;1.43;;;0.97;;
16922;SDS011;8578;50.938;13.556;2023-04-23T11:51:46;1.23;;;0.87;;
16922;SDS011;8578;50.938;13.556;2023-04-23T11:54:14;0.63;;;0.60;;
16922;SDS011;8578;50.938;13.556;2023-04-23T11:56:41;2.00;;;0.67;;
16922;SDS011;8578;50.938;13.556;2023-04-23T11:59:09;1.07;;;0.60;;
16922;SDS011;8578;50.938;13.556;2023-04-23T12:01:43;1.23;;;0.80;;
16922;SDS011;8578;50.938;13.556;2023-04-23T12:04:11;1.63;;;0.70;;
16922;SDS011;8578;50.938;13.556;2023-04-23T12:06:40;1.30;;;0.70;;
16922;SDS011;8578;50.938;13.556;2023-04-23T12:09:10;1.37;;;0.50;;
16922;SDS011;8578;50.938;13.556;2023-04-23T12:11:38;1.60;;;0.70;;
16922;SDS011;8578;50.938;13.556;2023-04-23T12:14:06;0.77;;;0.70;;
16922;SDS011;8578;50.938;13.556;2023-04-23T12:16:35;0.50;;;0.50;;
16922;SDS011;8578;50.938;13.556;2023-04-23T12:19:04;0.70;;;0.60;;
16922;SDS011;8578;50.938;13.556;2023-04-23T12:21:33;2.30;;;0.70;;
16922;SDS011;8578;50.938;13.556;2023-04-23T12:24:02;1.00;;;0.70;;
16922;SDS011;8578;50.938;13.556;2023-04-23T12:26:31;4.00;;;2.33;;
16922;SDS011;8578;50.938;13.556;2023-04-23T12:28:59;1.80;;;1.20;;
16922;SDS011;8578;50.938;13.556;2023-04-23T12:31:27;1.70;;;0.80;;
16922;SDS011;8578;50.938;13.556;2023-04-23T12:33:56;0.60;;;0.53;;
16922;SDS011;8578;50.938;13.556;2023-04-23T12:36:25;0.80;;;0.50;;
16922;SDS011;8578;50.938;13.556;2023-04-23T12:38:53;0.70;;;0.57;;
16922;SDS011;8578;50.938;13.556;2023-04-23T12:41:21;0.73;;;0.70;;
16922;SDS011;8578;50.938;13.556;2023-04-23T12:43:50;0.63;;;0.60;;
16922;SDS011;8578;50.938;13.556;2023-04-23T12:46:18;1.10;;;0.63;;
16922;SDS011;8578;50.938;13.556;2023-04-23T12:48:45;0.50;;;0.50;;
16922;SDS011;8578;50.938;13.556;2023-04-23T12:51:12;0.67;;;0.67;;
16922;SDS011;8578;50.938;13.556;2023-04-23T12:53:40;0.83;;;0.70;;
16922;SDS011;8578;50.938;13.556;2023-04-23T12:56:08;0.50;;;0.50;;
16922;SDS011;8578;50.938;13.556;2023-04-23T12:58:35;0.60;;;0.60;;
16922;SDS011;8578;50.938;13.556;2023-04-23T13:01:05;0.70;;;0.70;;
16922;SDS011;8578;50.938;13.556;2023-04-23T13:03:32;1.23;;;0.67;;
16922;SDS011;8578;50.938;13.556;2023-04-23T13:06:00;1.20;;;0.80;;
16922;SDS011;8578;50.938;13.556;2023-04-23T13:08:27;0.80;;;0.67;;
16922;SDS011;8578;50.938;13.556;2023-04-23T13:10:55;0.73;;;0.70;;
16922;SDS011;8578;50.938;13.556;2023-04-23T13:13:22;0.83;;;0.60;;
16922;SDS011;8578;50.938;13.556;2023-04-23T13:15:50;1.30;;;0.87;;
16922;SDS011;8578;50.938;13.556;2023-04-23T13:18:19;0.80;;;0.70;;
16922;SDS011;8578;50.938;13.556;2023-04-23T13:20:47;0.70;;;0.60;;
16922;SDS011;8578;50.938;13.556;2023-04-23T13:23:15;0.70;;;0.60;;
16922;SDS011;8578;50.938;13.556;2023-04-23T13:25:42;0.50;;;0.50;;
16922;SDS011;8578;50.938;13.556;2023-04-23T13:28:10;2.70;;;0.60;;
16922;SDS011;8578;50.938;13.556;2023-04-23T13:30:37;1.10;;;0.63;;
16922;SDS011;8578;50.938;13.556;2023-04-23T13:33:05;0.60;;;0.60;;
16922;SDS011;8578;50.938;13.556;2023-04-23T13:35:34;1.23;;;0.70;;
16922;SDS011;8578;50.938;13.556;2023-04-23T13:38:03;1.93;;;0.50;;
16922;SDS011;8578;50.938;13.556;2023-04-23T13:40:30;0.60;;;0.60;;
16922;SDS011;8578;50.938;13.556;2023-04-23T13:42:57;0.87;;;0.60;;
16922;SDS011;8578;50.938;13.556;2023-04-23T13:45:25;0.60;;;0.60;;
16922;SDS011;8578;50.938;13.556;2023-04-23T13:47:53;1.10;;;0.63;;
16922;SDS011;8578;50.938;13.556;2023-04-23T13:50:20;0.87;;;0.70;;
16922;SDS011;8578;50.938;13.556;2023-04-23T13:52:49;0.90;;;0.63;;
16922;SDS011;8578;50.938;13.556;2023-04-23T13:55:16;1.10;;;0.63;;
16922;SDS011;8578;50.938;13.556;2023-04-23T13:57:44;0.93;;;0.73;;
16922;SDS011;8578;50.938;13.556;2023-04-23T14:00:12;0.63;;;0.63;;
16922;SDS011;8578;50.938;13.556;2023-04-23T14:02:39;0.63;;;0.63;;
16922;SDS011;8578;50.938;13.556;2023-04-23T14:05:07;2.53;;;0.70;;
16922;SDS011;8578;50.938;13.556;2023-04-23T14:07:35;0.60;;;0.60;;
16922;SDS011;8578;50.938;13.556;2023-04-23T14:10:04;0.90;;;0.80;;
16922;SDS011;8578;50.938;13.556;2023-04-23T14:12:32;0.87;;;0.80;;
16922;SDS011;8578;50.938;13.556;2023-04-23T14:14:59;3.77;;;0.90;;
16922;SDS011;8578;50.938;13.556;2023-04-23T14:17:26;1.83;;;0.63;;
16922;SDS011;8578;50.938;13.556;2023-04-23T14:19:54;3.13;;;0.80;;
16922;SDS011;8578;50.938;13.556;2023-04-23T14:22:22;1.77;;;0.70;;
16922;SDS011;8578;50.938;13.556;2023-04-23T14:24:49;0.70;;;0.70;;
16922;SDS011;8578;50.938;13.556;2023-04-23T14:27:18;1.37;;;1.07;;
16922;SDS011;8578;50.938;13.556;2023-04-23T14:29:50;1.17;;;0.80;;
16922;SDS011;8578;50.938;13.556;2023-04-23T14:32:17;1.37;;;1.00;;
16922;SDS011;8578;50.938;13.556;2023-04-23T14:34:45;1.33;;;1.00;;
16922;SDS011;8578;50.938;13.556;2023-04-23T14:37:12;1.83;;;1.10;;
16922;SDS011;8578;50.938;13.556;2023-04-23T14:39:42;2.70;;;1.20;;
16922;SDS011;8578;50.938;13.556;2023-04-23T14:42:10;1.50;;;1.40;;
16922;SDS011;8578;50.938;13.556;2023-04-23T14:44:39;2.13;;;1.73;;
16922;SDS011;8578;50.938;13.556;2023-04-23T14:47:06;2.77;;;1.70;;
16922;SDS011;8578;50.938;13.556;2023-04-23T14:49:37;1.80;;;1.10;;
16922;SDS011;8578;50.938;13.556;2023-04-23T14:52:06;2.10;;;1.40;;
16922;SDS011;8578;50.938;13.556;2023-04-23T14:54:33;1.40;;;1.30;;
16922;SDS011;8578;50.938;13.556;2023-04-23T14:57:01;2.10;;;1.30;;